Time,TemperatureF,DewpointF,PressureIn,WindDirection,WindDirectionDegrees,WindSpeedMPH,WindSpeedGustMPH,Humidity,HourlyPrecipIn,Conditions,Clouds,dailyrainin,SoftwareType,DateUTC
2017-03-24 00:01:00,47.9,-6.0,-100.00,North,0,0.0,0.0,1,0.00,,,0.00,WUHU216HW,2017-03-24 07:01:00,
2017-03-24 00:06:00,48.1,-5.9,-100.00,North,0,0.0,0.0,1,0.00,,,0.00,WUHU216HW,2017-03-24 07:06:00,
2017-03-24 00:11:00,48.1,-5.9,-100.00,North,0,0.0,0.0,1,0.00,,,0.00,WUHU216HW,2017-03-24 07:11:00,
2017-03-24 00:16:00,48.1,-5.9,-100.00,North,0,0.0,0.0,1,0.00,,,0.00,WUHU216HW,2017-03-24 07:16:00,
2017-03-24 00:21:00,48.2,-5.8,-100.00,North,0,0.0,0.0,1,0.00,,,0.00,WUHU216HW,2017-03-24 07:21:00,
2017-03-24 00:26:00,48.6,-5.5,-100.00,North,0,0.0,0.0,1,0.00,,,0.00,WUHU216HW,2017-03-24 07:26:00,
2017-03-24 00:31:00,48.6,-5.5,-100.00,North,0,0.0,0.0,1,0.00,,,0.00,WUHU216HW,2017-03-24 07:31:00,
2017-03-24 00:36:00,48.6,-5.5,-100.00,North,0,0.0,0.0,1,0.00,,,0.00,WUHU216HW,2017-03-24 07:36:00,
2017-03-24 00:41:00,48.8,-5.4,-100.00,North,0,0.0,0.0,1,0.00,,,0.00,WUHU216HW,2017-03-24 07:41:00,
2017-03-24 00:46:00,49.0,-5.2,-100.00,North,0,0.0,0.0,1,0.00,,,0.00,WUHU216HW,2017-03-24 07:46:00,
2017-03-24 00:51:00,49.0,-5.2,-100.00,North,0,0.0,0.0,1,0.00,,,0.00,WUHU216HW,2017-03-24 07:51:00,
2017-03-24 00:56:00,49.0,-5.2,-100.00,North,0,0.0,0.0,1,0.00,,,0.00,WUHU216HW,2017-03-24 07:56:00,
2017-03-24 01:01:00,49.1,-5.1,-100.00,North,0,0.0,0.0,1,0.00,,,0.00,WUHU216HW,2017-03-24 08:01:00,
2017-03-24 01:06:00,49.5,-4.8,-100.00,North,0,0.0,0.0,1,0.00,,,0.00,WUHU216HW,2017-03-24 08:06:00,
2017-03-24 01:11:00,50.0,-4.5,-100.00,North,0,0.0,0.0,1,0.00,,,0.00,WUHU216HW,2017-03-24 08:11:00,
2017-03-24 01:16:00,50.0,-4.5,-100.00,North,0,0.0,0.0,1,0.00,,,0.00,WUHU216HW,2017-03-24 08:16:00,
2017-03-24 01:21:00,49.7,-4.8,-100.00,North,0,0.0,0.0,1,0.00,,,0.00,WUHU216HW,2017-03-24 08:21:00,
2017-03-24 01:26:00,49.7,-4.8,-100.00,North,0,0.0,0.0,1,0.00,,,0.00,WUHU216HW,2017-03-24 08:26:00,
2017-03-24 01:31:00,49.7,-4.8,-100.00,North,0,0.0,0.0,1,0.00,,,0.00,WUHU216HW,2017-03-24 08:31:00,
2017-03-24 01:36:00,49.7,-4.8,-100.00,North,0,0.0,0.0,1,0.00,,,0.00,WUHU216HW,2017-03-24 08:36:00,
2017-03-24 01:41:00,49.7,-4.8,-100.00,North,0,0.0,0.0,1,0.00,,,0.00,WUHU216HW,2017-03-24 08:41:00,
2017-03-24 01:46:00,49.7,-4.8,-100.00,North,0,0.0,0.0,1,0.00,,,0.00,WUHU216HW,2017-03-24 08:46:00,
2017-03-24 01:51:00,49.9,-4.6,-100.00,North,0,0.0,0.0,1,0.00,,,0.00,WUHU216HW,2017-03-24 08:51:00,
2017-03-24 01:56:00,50.0,-4.5,-100.00,North,0,0.0,0.0,1,0.00,,,0.00,WUHU216HW,2017-03-24 08:56:00,
2017-03-24 02:01:00,50.0,-4.5,-100.00,North,0,0.0,0.0,1,0.00,,,0.00,WUHU216HW,2017-03-24 09:01:00,
2017-03-24 02:06:00,50.0,-4.5,-100.00,North,0,0.0,0.0,1,0.00,,,0.00,WUHU216HW,2017-03-24 09:06:00,
2017-03-24 02:11:00,50.0,-4.5,-100.00,North,0,0.0,0.0,1,0.00,,,0.00,WUHU216HW,2017-03-24 09:11:00,
2017-03-24 02:16:00,50.0,-4.5,-100.00,North,0,0.0,0.0,1,0.00,,,0.00,WUHU216HW,2017-03-24 09:16:00,
2017-03-24 02:21:00,50.0,-4.5,-100.00,North,0,0.0,0.0,1,0.00,,,0.00,WUHU216HW,2017-03-24 09:21:00,
2017-03-24 02:26:00,50.0,-4.5,-100.00,North,0,0.0,0.0,1,0.00,,,0.00,WUHU216HW,2017-03-24 09:26:00,
2017-03-24 02:31:00,50.0,-4.5,-100.00,North,0,0.0,0.0,1,0.00,,,0.00,WUHU216HW,2017-03-24 09:31:00,
2017-03-24 02:36:00,50.2,-4.3,-100.00,North,0,0.0,0.0,1,0.00,,,0.00,WUHU216HW,2017-03-24 09:36:00,
2017-03-24 02:41:00,50.2,-4.3,-100.00,North,0,0.0,0.0,1,0.00,,,0.00,WUHU216HW,2017-03-24 09:41:00,
2017-03-24 02:46:00,50.2,-4.3,-100.00,North,0,0.0,0.0,1,0.00,,,0.00,WUHU216HW,2017-03-24 09:46:00,
2017-03-24 02:51:00,50.4,-4.2,-100.00,North,0,0.0,0.0,1,0.00,,,0.00,WUHU216HW,2017-03-24 09:51:00,
2017-03-24 02:52:00,50.4,-4.2,-100.00,North,0,0.0,0.0,1,0.00,,,0.00,WUHU216HW,2017-03-24 09:52:00,
2017-03-24 02:57:00,50.4,-4.2,-100.00,North,0,0.0,0.0,1,0.00,,,0.00,WUHU216HW,2017-03-24 09:57:00,
2017-03-24 03:02:00,50.4,-4.2,-100.00,North,0,0.0,0.0,1,0.00,,,0.00,WUHU216HW,2017-03-24 10:02:00,
2017-03-24 03:06:00,50.2,-4.3,-100.00,North,0,0.0,0.0,1,0.00,,,0.00,WUHU216HW,2017-03-24 10:06:00,
2017-03-24 03:12:00,50.2,-4.3,-100.00,North,0,0.0,0.0,1,0.00,,,0.00,WUHU216HW,2017-03-24 10:12:00,
2017-03-24 03:17:00,50.4,-4.2,-100.00,North,0,0.0,0.0,1,0.00,,,0.00,WUHU216HW,2017-03-24 10:17:00,
2017-03-24 03:22:00,50.6,-4.0,-100.00,North,0,0.0,0.0,1,0.00,,,0.00,WUHU216HW,2017-03-24 10:22:00,
2017-03-24 03:27:00,50.6,-4.0,-100.00,North,0,0.0,0.0,1,0.00,,,0.00,WUHU216HW,2017-03-24 10:27:00,
2017-03-24 03:32:00,50.6,-4.0,-100.00,North,0,0.0,0.0,1,0.00,,,0.00,WUHU216HW,2017-03-24 10:32:00,
2017-03-24 03:37:00,50.6,-4.0,-100.00,North,0,0.0,0.0,1,0.00,,,0.00,WUHU216HW,2017-03-24 10:37:00,
2017-03-24 03:42:00,50.8,-4.0,-100.00,North,0,0.0,0.0,1,0.00,,,0.00,WUHU216HW,2017-03-24 10:42:00,
2017-03-24 03:47:00,50.8,-4.0,-100.00,North,0,0.0,0.0,1,0.00,,,0.00,WUHU216HW,2017-03-24 10:47:00,
2017-03-24 03:52:00,50.8,-4.0,-100.00,North,0,0.0,0.0,1,0.00,,,0.00,WUHU216HW,2017-03-24 10:52:00,
2017-03-24 03:57:00,50.8,-4.0,-100.00,North,0,0.0,0.0,1,0.00,,,0.00,WUHU216HW,2017-03-24 10:57:00,
2017-03-24 04:02:00,50.8,-4.0,-100.00,North,0,0.0,0.0,1,0.00,,,0.00,WUHU216HW,2017-03-24 11:02:00,
2017-03-24 04:07:00,50.8,-4.0,-100.00,North,0,0.0,0.0,1,0.00,,,0.00,WUHU216HW,2017-03-24 11:07:00,
2017-03-24 04:12:00,50.9,-3.8,-100.00,North,0,0.0,0.0,1,0.00,,,0.00,WUHU216HW,2017-03-24 11:12:00,
2017-03-24 04:17:00,51.1,-3.6,-100.00,North,0,0.0,0.0,1,0.00,,,0.00,WUHU216HW,2017-03-24 11:17:00,
2017-03-24 04:22:00,51.1,-3.6,-100.00,North,0,0.0,0.0,1,0.00,,,0.00,WUHU216HW,2017-03-24 11:22:00,
2017-03-24 04:27:00,51.3,-3.5,-100.00,North,0,0.0,0.0,1,0.00,,,0.00,WUHU216HW,2017-03-24 11:27:00,
2017-03-24 04:32:00,51.5,-3.3,-100.00,North,0,0.0,0.0,1,0.00,,,0.00,WUHU216HW,2017-03-24 11:32:00,
2017-03-24 04:37:00,51.5,-3.3,-100.00,North,0,0.0,0.0,1,0.00,,,0.00,WUHU216HW,2017-03-24 11:37:00,
2017-03-24 04:42:00,51.7,-3.2,-100.00,North,0,0.0,0.0,1,0.00,,,0.00,WUHU216HW,2017-03-24 11:42:00,
2017-03-24 04:47:00,51.5,-3.3,-100.00,North,0,0.0,0.0,1,0.00,,,0.00,WUHU216HW,2017-03-24 11:47:00,
2017-03-24 04:52:00,51.7,-3.2,-100.00,North,0,0.0,0.0,1,0.00,,,0.00,WUHU216HW,2017-03-24 11:52:00,
2017-03-24 04:57:00,51.5,-3.3,-100.00,North,0,0.0,0.0,1,0.00,,,0.00,WUHU216HW,2017-03-24 11:57:00,
2017-03-24 05:02:00,51.5,-3.3,-100.00,North,0,0.0,0.0,1,0.00,,,0.00,WUHU216HW,2017-03-24 12:02:00,
2017-03-24 05:07:00,51.5,-3.3,-100.00,North,0,0.0,0.0,1,0.00,,,0.00,WUHU216HW,2017-03-24 12:07:00,
2017-03-24 05:12:00,51.5,-3.3,-100.00,North,0,0.0,0.0,1,0.00,,,0.00,WUHU216HW,2017-03-24 12:12:00,
2017-03-24 05:17:00,51.7,-3.2,-100.00,North,0,0.0,0.0,1,0.00,,,0.00,WUHU216HW,2017-03-24 12:17:00,
2017-03-24 05:22:00,51.8,-3.1,-100.00,North,0,0.0,0.0,1,0.00,,,0.00,WUHU216HW,2017-03-24 12:22:00,
2017-03-24 05:27:00,51.8,-3.1,-100.00,North,0,0.0,0.0,1,0.00,,,0.00,WUHU216HW,2017-03-24 12:27:00,
2017-03-24 05:32:00,51.8,-3.1,-100.00,North,0,0.0,0.0,1,0.00,,,0.00,WUHU216HW,2017-03-24 12:32:00,
2017-03-24 05:37:00,51.8,-3.1,-100.00,North,0,0.0,0.0,1,0.00,,,0.00,WUHU216HW,2017-03-24 12:37:00,
2017-03-24 05:42:00,51.8,-3.1,-100.00,North,0,0.0,0.0,1,0.00,,,0.00,WUHU216HW,2017-03-24 12:42:00,
2017-03-24 05:47:00,51.8,-3.1,-100.00,North,0,0.0,0.0,1,0.00,,,0.00,WUHU216HW,2017-03-24 12:47:00,
2017-03-24 05:52:00,51.8,-3.1,-100.00,North,0,0.0,0.0,1,0.00,,,0.00,WUHU216HW,2017-03-24 12:52:00,
2017-03-24 05:57:00,51.7,-3.2,-100.00,North,0,0.0,0.0,1,0.00,,,0.00,WUHU216HW,2017-03-24 12:57:00,
2017-03-24 06:02:00,51.5,-3.3,-100.00,North,0,0.0,0.0,1,0.00,,,0.00,WUHU216HW,2017-03-24 13:02:00,
2017-03-24 06:07:00,51.5,-3.3,-100.00,North,0,0.0,0.0,1,0.00,,,0.00,WUHU216HW,2017-03-24 13:07:00,
2017-03-24 06:12:00,51.5,-3.3,-100.00,North,0,0.0,0.0,1,0.00,,,0.00,WUHU216HW,2017-03-24 13:12:00,
2017-03-24 06:17:00,51.3,-3.5,-100.00,North,0,0.0,0.0,1,0.00,,,0.00,WUHU216HW,2017-03-24 13:17:00,
2017-03-24 06:22:00,51.3,-3.5,-100.00,North,0,0.0,0.0,1,0.00,,,0.00,WUHU216HW,2017-03-24 13:22:00,
2017-03-24 06:27:00,51.3,-3.5,-100.00,North,0,0.0,0.0,1,0.00,,,0.00,WUHU216HW,2017-03-24 13:27:00,
2017-03-24 06:32:00,51.5,-3.3,-100.00,North,0,0.0,0.0,1,0.00,,,0.00,WUHU216HW,2017-03-24 13:32:00,
2017-03-24 06:37:00,51.5,-3.3,-100.00,North,0,0.0,0.0,1,0.00,,,0.00,WUHU216HW,2017-03-24 13:37:00,
2017-03-24 06:42:00,51.5,-3.3,-100.00,North,0,0.0,0.0,1,0.00,,,0.00,WUHU216HW,2017-03-24 13:42:00,
2017-03-24 06:47:00,51.5,-3.3,-100.00,North,0,0.0,0.0,1,0.00,,,0.00,WUHU216HW,2017-03-24 13:47:00,
2017-03-24 06:52:00,51.5,-3.3,-100.00,North,0,0.0,0.0,1,0.00,,,0.00,WUHU216HW,2017-03-24 13:52:00,
2017-03-24 06:57:00,51.5,-3.3,-100.00,North,0,0.0,0.0,1,0.00,,,0.00,WUHU216HW,2017-03-24 13:57:00,
2017-03-24 07:02:00,51.7,-3.2,-100.00,North,0,0.0,0.0,1,0.00,,,0.00,WUHU216HW,2017-03-24 14:02:00,
2017-03-24 07:07:00,51.7,-3.2,-100.00,North,0,0.0,0.0,1,0.00,,,0.00,WUHU216HW,2017-03-24 14:07:00,
2017-03-24 07:12:00,51.7,-3.2,-100.00,North,0,0.0,0.0,1,0.00,,,0.00,WUHU216HW,2017-03-24 14:12:00,
2017-03-24 07:17:00,51.5,-3.3,-100.00,North,0,0.0,0.0,1,0.00,,,0.00,WUHU216HW,2017-03-24 14:17:00,
2017-03-24 07:22:00,51.5,-3.3,-100.00,North,0,0.0,0.0,1,0.00,,,0.00,WUHU216HW,2017-03-24 14:22:00,
2017-03-24 07:27:00,51.5,-3.3,-100.00,North,0,0.0,0.0,1,0.00,,,0.00,WUHU216HW,2017-03-24 14:27:00,
2017-03-24 07:32:00,51.5,-3.3,-100.00,North,0,0.0,0.0,1,0.00,,,0.00,WUHU216HW,2017-03-24 14:32:00,
2017-03-24 07:37:00,51.3,-3.5,-100.00,North,0,0.0,0.0,1,0.00,,,0.00,WUHU216HW,2017-03-24 14:37:00,
2017-03-24 07:42:00,51.1,-3.6,-100.00,North,0,0.0,0.0,1,0.00,,,0.00,WUHU216HW,2017-03-24 14:42:00,
2017-03-24 07:47:00,51.1,-3.6,-100.00,North,0,0.0,0.0,1,0.00,,,0.00,WUHU216HW,2017-03-24 14:47:00,
2017-03-24 07:52:00,50.9,-3.8,-100.00,North,0,0.0,0.0,1,0.00,,,0.00,WUHU216HW,2017-03-24 14:52:00,
2017-03-24 07:57:00,50.8,-4.0,-100.00,North,0,0.0,0.0,1,0.00,,,0.00,WUHU216HW,2017-03-24 14:57:00,
2017-03-24 08:02:00,50.8,-4.0,-100.00,North,0,0.0,0.0,1,0.00,,,0.00,WUHU216HW,2017-03-24 15:02:00,
2017-03-24 08:07:00,50.8,-4.0,-100.00,North,0,0.0,0.0,1,0.00,,,0.00,WUHU216HW,2017-03-24 15:07:00,
2017-03-24 08:12:00,50.8,-4.0,-100.00,North,0,0.0,0.0,1,0.00,,,0.00,WUHU216HW,2017-03-24 15:12:00,
2017-03-24 08:17:00,50.6,-4.0,-100.00,North,0,0.0,0.0,1,0.00,,,0.00,WUHU216HW,2017-03-24 15:17:00,
2017-03-24 08:22:00,50.4,-4.2,-100.00,North,0,0.0,0.0,1,0.00,,,0.00,WUHU216HW,2017-03-24 15:22:00,
2017-03-24 08:27:00,50.2,-4.3,-100.00,North,0,0.0,0.0,1,0.00,,,0.00,WUHU216HW,2017-03-24 15:27:00,
2017-03-24 08:32:00,50.2,-4.3,-100.00,North,0,0.0,0.0,1,0.00,,,0.00,WUHU216HW,2017-03-24 15:32:00,
2017-03-24 08:37:00,50.2,-4.3,-100.00,North,0,0.0,0.0,1,0.00,,,0.00,WUHU216HW,2017-03-24 15:37:00,
2017-03-24 08:42:00,50.2,-4.3,-100.00,North,0,0.0,0.0,1,0.00,,,0.00,WUHU216HW,2017-03-24 15:42:00,
2017-03-24 08:47:00,50.2,-4.3,-100.00,North,0,0.0,0.0,1,0.00,,,0.00,WUHU216HW,2017-03-24 15:47:00,
2017-03-24 08:52:00,50.2,-4.3,-100.00,North,0,0.0,0.0,1,0.00,,,0.00,WUHU216HW,2017-03-24 15:52:00,
2017-03-24 08:57:00,50.2,-4.3,-100.00,North,0,0.0,0.0,1,0.00,,,0.00,WUHU216HW,2017-03-24 15:57:00,
2017-03-24 09:02:00,50.4,-4.2,-100.00,North,0,0.0,0.0,1,0.00,,,0.00,WUHU216HW,2017-03-24 16:02:00,
2017-03-24 09:07:00,50.6,-4.0,-100.00,North,0,0.0,0.0,1,0.00,,,0.00,WUHU216HW,2017-03-24 16:07:00,
2017-03-24 09:12:00,50.4,-4.2,-100.00,North,0,0.0,0.0,1,0.00,,,0.00,WUHU216HW,2017-03-24 16:12:00,
2017-03-24 09:17:00,50.2,-4.3,-100.00,North,0,0.0,0.0,1,0.00,,,0.00,WUHU216HW,2017-03-24 16:17:00,
2017-03-24 09:22:00,50.0,-4.5,-100.00,North,0,0.0,0.0,1,0.00,,,0.00,WUHU216HW,2017-03-24 16:22:00,
2017-03-24 09:27:00,50.0,-4.5,-100.00,North,0,0.0,0.0,1,0.00,,,0.00,WUHU216HW,2017-03-24 16:27:00,
2017-03-24 09:32:00,50.0,-4.5,-100.00,North,0,0.0,0.0,1,0.00,,,0.00,WUHU216HW,2017-03-24 16:32:00,
2017-03-24 09:37:00,50.0,-4.5,-100.00,North,0,0.0,0.0,1,0.00,,,0.00,WUHU216HW,2017-03-24 16:37:00,
2017-03-24 09:42:00,50.2,-4.3,-100.00,North,0,0.0,0.0,1,0.00,,,0.00,WUHU216HW,2017-03-24 16:42:00,
2017-03-24 09:44:00,50.4,-4.2,-100.00,North,0,0.0,0.0,1,0.00,,,0.00,WUHU216HW,2017-03-24 16:44:00,
2017-03-24 09:49:00,50.6,-4.0,-100.00,North,0,0.0,0.0,1,0.00,,,0.00,WUHU216HW,2017-03-24 16:49:00,
2017-03-24 09:54:00,50.8,-4.0,-100.00,North,0,0.0,0.0,1,0.00,,,0.00,WUHU216HW,2017-03-24 16:54:00,
2017-03-24 09:59:00,51.1,-3.6,-100.00,North,0,0.0,0.0,1,0.00,,,0.00,WUHU216HW,2017-03-24 16:59:00,
2017-03-24 10:04:00,51.1,-3.6,-100.00,North,0,0.0,0.0,1,0.00,,,0.00,WUHU216HW,2017-03-24 17:04:00,
2017-03-24 10:09:00,50.8,-4.0,-100.00,North,0,0.0,0.0,1,0.00,,,0.00,WUHU216HW,2017-03-24 17:09:00,
2017-03-24 10:14:00,50.4,-4.2,-100.00,North,0,0.0,0.0,1,0.00,,,0.00,WUHU216HW,2017-03-24 17:14:00,
2017-03-24 10:19:00,50.2,-4.3,-100.00,North,0,0.0,0.0,1,0.00,,,0.00,WUHU216HW,2017-03-24 17:19:00,
2017-03-24 10:24:00,50.4,-4.2,-100.00,North,0,0.0,0.0,1,0.00,,,0.00,WUHU216HW,2017-03-24 17:24:00,
2017-03-24 10:29:00,53.3,-1.9,-100.00,North,0,0.0,0.0,1,0.00,,,0.00,WUHU216HW,2017-03-24 17:29:00,
2017-03-24 10:34:00,53.8,-1.4,-100.00,North,0,0.0,0.0,1,0.00,,,0.00,WUHU216HW,2017-03-24 17:34:00,
2017-03-24 10:39:00,52.0,-2.9,-100.00,North,0,0.0,0.0,1,0.00,,,0.00,WUHU216HW,2017-03-24 17:39:00,
2017-03-24 10:44:00,51.3,-3.5,-100.00,North,0,0.0,0.0,1,0.00,,,0.00,WUHU216HW,2017-03-24 17:44:00,
2017-03-24 10:49:00,51.7,-3.2,-100.00,North,0,0.0,0.0,1,0.00,,,0.00,WUHU216HW,2017-03-24 17:49:00,
2017-03-24 10:54:00,51.1,-3.6,-100.00,North,0,0.0,0.0,1,0.00,,,0.00,WUHU216HW,2017-03-24 17:54:00,
2017-03-24 10:59:00,49.7,-4.8,-100.00,North,0,0.0,0.0,1,0.00,,,0.00,WUHU216HW,2017-03-24 17:59:00,
2017-03-24 11:04:00,51.3,-3.5,-100.00,North,0,0.0,0.0,1,0.00,,,0.00,WUHU216HW,2017-03-24 18:04:00,
2017-03-24 11:09:00,51.8,-3.1,-100.00,North,0,0.0,0.0,1,0.00,,,0.00,WUHU216HW,2017-03-24 18:09:00,
2017-03-24 11:14:00,51.3,-3.5,-100.00,North,0,0.0,0.0,1,0.00,,,0.00,WUHU216HW,2017-03-24 18:14:00,
2017-03-24 11:19:00,49.9,-4.6,-100.00,North,0,0.0,0.0,1,0.00,,,0.00,WUHU216HW,2017-03-24 18:19:00,
2017-03-24 11:24:00,50.6,-4.0,-100.00,North,0,0.0,0.0,1,0.00,,,0.00,WUHU216HW,2017-03-24 18:24:00,
2017-03-24 11:29:00,50.6,-4.0,-100.00,North,0,0.0,0.0,1,0.00,,,0.00,WUHU216HW,2017-03-24 18:29:00,
2017-03-24 11:34:00,50.2,-4.3,-100.00,North,0,0.0,0.0,1,0.00,,,0.00,WUHU216HW,2017-03-24 18:34:00,
2017-03-24 11:39:00,50.8,-4.0,-100.00,North,0,0.0,0.0,1,0.00,,,0.00,WUHU216HW,2017-03-24 18:39:00,
2017-03-24 11:44:00,50.9,-3.8,-100.00,North,0,0.0,0.0,1,0.00,,,0.00,WUHU216HW,2017-03-24 18:44:00,
2017-03-24 11:49:00,51.1,-3.6,-100.00,North,0,0.0,0.0,1,0.00,,,0.00,WUHU216HW,2017-03-24 18:49:00,
2017-03-24 11:54:00,51.1,-3.6,-100.00,North,0,0.0,0.0,1,0.00,,,0.00,WUHU216HW,2017-03-24 18:54:00,
2017-03-24 11:59:00,51.8,-3.1,-100.00,North,0,0.0,0.0,1,0.00,,,0.00,WUHU216HW,2017-03-24 18:59:00,
2017-03-24 12:04:00,51.8,-3.1,-100.00,North,0,0.0,0.0,1,0.00,,,0.00,WUHU216HW,2017-03-24 19:04:00,
2017-03-24 12:09:00,52.9,-2.1,-100.00,North,0,0.0,0.0,1,0.00,,,0.00,WUHU216HW,2017-03-24 19:09:00,
2017-03-24 12:14:00,53.5,-1.8,-100.00,North,0,0.0,0.0,1,0.00,,,0.00,WUHU216HW,2017-03-24 19:14:00,
2017-03-24 12:19:00,53.5,-1.8,-100.00,North,0,0.0,0.0,1,0.00,,,0.00,WUHU216HW,2017-03-24 19:19:00,
2017-03-24 12:24:00,54.5,-0.9,-100.00,North,0,0.0,0.0,1,0.00,,,0.00,WUHU216HW,2017-03-24 19:24:00,
2017-03-24 12:25:00,55.4,-0.2,-100.00,North,0,0.0,0.0,1,0.00,,,0.00,WUHU216HW,2017-03-24 19:25:00,
2017-03-24 12:30:00,57.1,1.0,-100.00,North,0,0.0,0.0,1,0.00,,,0.00,WUHU216HW,2017-03-24 19:30:00,
2017-03-24 12:35:00,55.6,-0.1,-100.00,North,0,0.0,0.0,1,0.00,,,0.00,WUHU216HW,2017-03-24 19:35:00,
2017-03-24 12:40:00,55.8,0.1,-100.00,North,0,0.0,0.0,1,0.00,,,0.00,WUHU216HW,2017-03-24 19:40:00,
2017-03-24 12:45:00,53.6,-1.6,-100.00,North,0,0.0,0.0,1,0.00,,,0.00,WUHU216HW,2017-03-24 19:45:00,
2017-03-24 12:50:00,56.5,0.5,-100.00,North,0,0.0,0.0,1,0.00,,,0.00,WUHU216HW,2017-03-24 19:50:00,
2017-03-24 12:55:00,56.5,0.5,-100.00,North,0,0.0,0.0,1,0.00,,,0.00,WUHU216HW,2017-03-24 19:55:00,
2017-03-24 13:00:00,57.4,1.3,-100.00,North,0,0.0,0.0,1,0.00,,,0.00,WUHU216HW,2017-03-24 20:00:00,
2017-03-24 13:05:00,57.8,1.5,-100.00,North,0,0.0,0.0,1,0.00,,,0.00,WUHU216HW,2017-03-24 20:05:00,
2017-03-24 13:10:00,60.5,3.7,-100.00,North,0,0.0,0.0,1,0.00,,,0.00,WUHU216HW,2017-03-24 20:10:00,
2017-03-24 13:15:00,60.8,4.0,-100.00,North,0,0.0,0.0,1,0.00,,,0.00,WUHU216HW,2017-03-24 20:15:00,
2017-03-24 13:20:00,60.8,4.0,-100.00,North,0,0.0,0.0,1,0.00,,,0.00,WUHU216HW,2017-03-24 20:20:00,
2017-03-24 13:25:00,61.9,4.9,-100.00,North,0,0.0,0.0,1,0.00,,,0.00,WUHU216HW,2017-03-24 20:25:00,
2017-03-24 13:30:00,60.5,3.7,-100.00,North,0,0.0,0.0,1,0.00,,,0.00,WUHU216HW,2017-03-24 20:30:00,
2017-03-24 13:35:00,60.8,4.0,-100.00,North,0,0.0,0.0,1,0.00,,,0.00,WUHU216HW,2017-03-24 20:35:00,
2017-03-24 13:40:00,60.8,4.0,-100.00,North,0,0.0,0.0,1,0.00,,,0.00,WUHU216HW,2017-03-24 20:40:00,
2017-03-24 13:45:00,60.3,3.5,-100.00,North,0,0.0,0.0,1,0.00,,,0.00,WUHU216HW,2017-03-24 20:45:00,
2017-03-24 13:50:00,59.2,2.7,-100.00,North,0,0.0,0.0,1,0.00,,,0.00,WUHU216HW,2017-03-24 20:50:00,
2017-03-24 13:55:00,61.7,4.7,-100.00,North,0,0.0,0.0,1,0.00,,,0.00,WUHU216HW,2017-03-24 20:55:00,
2017-03-24 14:00:00,62.1,5.0,-100.00,North,0,0.0,0.0,1,0.00,,,0.00,WUHU216HW,2017-03-24 21:00:00,
2017-03-24 14:05:00,61.9,4.9,-100.00,North,0,0.0,0.0,1,0.00,,,0.00,WUHU216HW,2017-03-24 21:05:00,
2017-03-24 14:10:00,61.7,4.7,-100.00,North,0,0.0,0.0,3,0.00,,,0.00,WUHU216HW,2017-03-24 21:10:00,
2017-03-24 14:15:00,61.6,4.5,-100.00,North,0,0.0,0.0,1,0.00,,,0.00,WUHU216HW,2017-03-24 21:15:00,
2017-03-24 14:20:00,61.6,4.5,-100.00,North,0,0.0,0.0,1,0.00,,,0.00,WUHU216HW,2017-03-24 21:20:00,
2017-03-24 14:25:00,61.6,4.5,-100.00,North,0,0.0,0.0,6,0.00,,,0.00,WUHU216HW,2017-03-24 21:25:00,
2017-03-24 14:30:00,61.2,4.2,-100.00,North,0,0.0,0.0,1,0.00,,,0.00,WUHU216HW,2017-03-24 21:30:00,
2017-03-24 14:35:00,61.4,4.4,-100.00,North,0,0.0,0.0,1,0.00,,,0.00,WUHU216HW,2017-03-24 21:35:00,
2017-03-24 14:40:00,62.3,5.1,-100.00,North,0,0.0,0.0,1,0.00,,,0.00,WUHU216HW,2017-03-24 21:40:00,
2017-03-24 14:45:00,61.6,4.5,-100.00,North,0,0.0,0.0,1,0.00,,,0.00,WUHU216HW,2017-03-24 21:45:00,
2017-03-24 14:50:00,62.1,5.0,-100.00,North,0,0.0,0.0,1,0.00,,,0.00,WUHU216HW,2017-03-24 21:50:00,
2017-03-24 14:55:00,61.7,4.7,-100.00,North,0,0.0,0.0,1,0.00,,,0.00,WUHU216HW,2017-03-24 21:55:00,
2017-03-24 15:00:00,61.6,4.5,-100.00,North,0,0.0,0.0,1,0.00,,,0.00,WUHU216HW,2017-03-24 22:00:00,
2017-03-24 15:05:00,61.2,4.2,-100.00,North,0,0.0,0.0,1,0.00,,,0.00,WUHU216HW,2017-03-24 22:05:00,
2017-03-24 15:10:00,60.5,3.7,-100.00,North,0,0.0,0.0,1,0.00,,,0.00,WUHU216HW,2017-03-24 22:10:00,
2017-03-24 15:15:00,59.8,3.1,-100.00,North,0,0.0,0.0,1,0.00,,,0.00,WUHU216HW,2017-03-24 22:15:00,
2017-03-24 15:20:00,59.0,2.5,-100.00,North,0,0.0,0.0,1,0.00,,,0.00,WUHU216HW,2017-03-24 22:20:00,
2017-03-24 15:21:00,59.0,2.5,-100.00,North,0,0.0,0.0,1,0.00,,,0.00,WUHU216HW,2017-03-24 22:21:00,
2017-03-24 15:26:00,58.9,2.3,-100.00,North,0,0.0,0.0,1,0.00,,,0.00,WUHU216HW,2017-03-24 22:26:00,
2017-03-24 15:31:00,59.0,2.5,-100.00,North,0,0.0,0.0,1,0.00,,,0.00,WUHU216HW,2017-03-24 22:31:00,
2017-03-24 15:36:00,59.0,2.5,-100.00,North,0,0.0,0.0,1,0.00,,,0.00,WUHU216HW,2017-03-24 22:36:00,
2017-03-24 15:41:00,57.1,1.0,-100.00,North,0,0.0,0.0,1,0.00,,,0.00,WUHU216HW,2017-03-24 22:41:00,
2017-03-24 15:46:00,56.9,0.8,-100.00,North,0,0.0,0.0,1,0.00,,,0.00,WUHU216HW,2017-03-24 22:46:00,
2017-03-24 15:51:00,55.1,-0.4,-100.00,North,0,0.0,0.0,1,0.00,,,0.00,WUHU216HW,2017-03-24 22:51:00,
2017-03-24 15:56:00,52.9,-2.1,-100.00,North,0,0.0,0.0,1,0.00,,,0.00,WUHU216HW,2017-03-24 22:56:00,
2017-03-24 16:01:00,51.7,-3.2,-100.00,North,0,0.0,0.0,1,0.00,,,0.00,WUHU216HW,2017-03-24 23:01:00,
2017-03-24 16:06:00,51.7,-3.2,-100.00,North,0,0.0,0.0,1,0.00,,,0.00,WUHU216HW,2017-03-24 23:06:00,
2017-03-24 16:11:00,51.8,-3.1,-100.00,North,0,0.0,0.0,1,0.00,,,0.00,WUHU216HW,2017-03-24 23:11:00,
2017-03-24 16:16:00,51.1,-3.6,-100.00,North,0,0.0,0.0,1,0.00,,,0.00,WUHU216HW,2017-03-24 23:16:00,
2017-03-24 16:21:00,50.2,-4.3,-100.00,North,0,0.0,0.0,1,0.00,,,0.00,WUHU216HW,2017-03-24 23:21:00,
2017-03-24 16:26:00,50.6,-4.0,-100.00,North,0,0.0,0.0,1,0.00,,,0.00,WUHU216HW,2017-03-24 23:26:00,
2017-03-24 16:31:00,50.8,-4.0,-100.00,North,0,0.0,0.0,1,0.00,,,0.00,WUHU216HW,2017-03-24 23:31:00,
2017-03-24 16:32:00,50.8,-4.0,-100.00,North,0,0.0,0.0,1,0.00,,,0.00,WUHU216HW,2017-03-24 23:32:00,
2017-03-24 16:37:00,50.2,-4.3,-100.00,North,0,0.0,0.0,1,0.00,,,0.00,WUHU216HW,2017-03-24 23:37:00,
2017-03-24 16:42:00,50.6,-4.0,-100.00,North,0,0.0,0.0,1,0.00,,,0.00,WUHU216HW,2017-03-24 23:42:00,
2017-03-24 16:43:00,50.8,-4.0,-100.00,North,0,0.0,0.0,1,0.00,,,0.00,WUHU216HW,2017-03-24 23:43:00,
2017-03-24 16:47:00,50.6,-4.0,-100.00,North,0,0.0,0.0,1,0.00,,,0.00,WUHU216HW,2017-03-24 23:47:00,
2017-03-24 16:52:00,50.6,-4.0,-100.00,North,0,0.0,0.0,1,0.00,,,0.00,WUHU216HW,2017-03-24 23:52:00,
2017-03-24 16:57:00,50.8,-4.0,-100.00,North,0,0.0,0.0,1,0.00,,,0.00,WUHU216HW,2017-03-24 23:57:00,
2017-03-24 17:02:00,50.9,-3.8,-100.00,North,0,0.0,0.0,1,0.00,,,0.00,WUHU216HW,2017-03-25 00:02:00,
2017-03-24 17:07:00,50.8,-4.0,-100.00,North,0,0.0,0.0,1,0.00,,,0.00,WUHU216HW,2017-03-25 00:07:00,
2017-03-24 17:12:00,50.0,-4.5,-100.00,North,0,0.0,0.0,1,0.00,,,0.00,WUHU216HW,2017-03-25 00:12:00,
2017-03-24 17:17:00,48.6,-5.5,-100.00,North,0,0.0,0.0,1,0.00,,,0.00,WUHU216HW,2017-03-25 00:17:00,
2017-03-24 17:22:00,47.9,-6.0,-100.00,North,0,0.0,0.0,1,0.00,,,0.00,WUHU216HW,2017-03-25 00:22:00,
2017-03-24 17:27:00,47.5,-6.3,-100.00,North,0,0.0,0.0,1,0.00,,,0.00,WUHU216HW,2017-03-25 00:27:00,
2017-03-24 17:32:00,47.7,-6.2,-100.00,North,0,0.0,0.0,1,0.00,,,0.00,WUHU216HW,2017-03-25 00:32:00,
2017-03-24 17:37:00,47.7,-6.2,-100.00,North,0,0.0,0.0,1,0.00,,,0.00,WUHU216HW,2017-03-25 00:37:00,
2017-03-24 17:42:00,47.5,-6.3,-100.00,North,0,0.0,0.0,1,0.00,,,0.00,WUHU216HW,2017-03-25 00:42:00,
2017-03-24 17:47:00,47.3,-6.5,-100.00,North,0,0.0,0.0,1,0.00,,,0.00,WUHU216HW,2017-03-25 00:47:00,
2017-03-24 17:52:00,47.2,-6.7,-100.00,North,0,0.0,0.0,1,0.00,,,0.00,WUHU216HW,2017-03-25 00:52:00,
2017-03-24 17:57:00,47.2,-6.7,-100.00,North,0,0.0,0.0,1,0.00,,,0.00,WUHU216HW,2017-03-25 00:57:00,
2017-03-24 18:02:00,47.2,-6.7,-100.00,North,0,0.0,0.0,1,0.00,,,0.00,WUHU216HW,2017-03-25 01:02:00,
2017-03-24 18:07:00,47.2,-6.7,-100.00,North,0,0.0,0.0,1,0.00,,,0.00,WUHU216HW,2017-03-25 01:07:00,
2017-03-24 18:12:00,47.2,-6.7,-100.00,North,0,0.0,0.0,1,0.00,,,0.00,WUHU216HW,2017-03-25 01:12:00,
2017-03-24 18:17:00,47.2,-6.7,-100.00,North,0,0.0,0.0,1,0.00,,,0.00,WUHU216HW,2017-03-25 01:17:00,
2017-03-24 18:22:00,47.2,-6.7,-100.00,North,0,0.0,0.0,1,0.00,,,0.00,WUHU216HW,2017-03-25 01:22:00,
2017-03-24 18:27:00,47.0,-6.7,-100.00,North,0,0.0,0.0,1,0.00,,,0.00,WUHU216HW,2017-03-25 01:27:00,
2017-03-24 18:32:00,46.8,-6.9,-100.00,North,0,0.0,0.0,1,0.00,,,0.00,WUHU216HW,2017-03-25 01:32:00,
2017-03-24 18:37:00,46.8,-6.9,-100.00,North,0,0.0,0.0,1,0.00,,,0.00,WUHU216HW,2017-03-25 01:37:00,
2017-03-24 18:42:00,46.6,-7.0,-100.00,North,0,0.0,0.0,1,0.00,,,0.00,WUHU216HW,2017-03-25 01:42:00,
2017-03-24 18:47:00,47.0,-6.7,-100.00,North,0,0.0,0.0,1,0.00,,,0.00,WUHU216HW,2017-03-25 01:47:00,
2017-03-24 18:52:00,47.0,-6.7,-100.00,North,0,0.0,0.0,1,0.00,,,0.00,WUHU216HW,2017-03-25 01:52:00,
2017-03-24 18:57:00,47.2,-6.7,-100.00,North,0,0.0,0.0,1,0.00,,,0.00,WUHU216HW,2017-03-25 01:57:00,
2017-03-24 19:02:00,47.2,-6.7,-100.00,North,0,0.0,0.0,1,0.00,,,0.00,WUHU216HW,2017-03-25 02:02:00,
2017-03-24 19:07:00,47.5,-6.3,-100.00,North,0,0.0,0.0,1,0.00,,,0.00,WUHU216HW,2017-03-25 02:07:00,
2017-03-24 19:12:00,47.7,-6.2,-100.00,North,0,0.0,0.0,1,0.00,,,0.00,WUHU216HW,2017-03-25 02:12:00,
2017-03-24 19:17:00,47.9,-6.0,-100.00,North,0,0.0,0.0,1,0.00,,,0.00,WUHU216HW,2017-03-25 02:17:00,
2017-03-24 19:22:00,47.7,-6.2,-100.00,North,0,0.0,0.0,1,0.00,,,0.00,WUHU216HW,2017-03-25 02:22:00,
2017-03-24 19:27:00,47.7,-6.2,-100.00,North,0,0.0,0.0,1,0.00,,,0.00,WUHU216HW,2017-03-25 02:27:00,
2017-03-24 19:32:00,47.7,-6.2,-100.00,North,0,0.0,0.0,1,0.00,,,0.00,WUHU216HW,2017-03-25 02:32:00,
2017-03-24 19:37:00,47.5,-6.3,-100.00,North,0,0.0,0.0,1,0.00,,,0.00,WUHU216HW,2017-03-25 02:37:00,
2017-03-24 19:42:00,47.3,-6.5,-100.00,North,0,0.0,0.0,1,0.00,,,0.00,WUHU216HW,2017-03-25 02:42:00,
2017-03-24 19:47:00,47.2,-6.7,-100.00,North,0,0.0,0.0,1,0.00,,,0.00,WUHU216HW,2017-03-25 02:47:00,
2017-03-24 19:52:00,47.2,-6.7,-100.00,North,0,0.0,0.0,1,0.00,,,0.00,WUHU216HW,2017-03-25 02:52:00,
2017-03-24 19:57:00,47.2,-6.7,-100.00,North,0,0.0,0.0,1,0.00,,,0.00,WUHU216HW,2017-03-25 02:57:00,
2017-03-24 20:02:00,47.2,-6.7,-100.00,North,0,0.0,0.0,1,0.00,,,0.00,WUHU216HW,2017-03-25 03:02:00,
2017-03-24 20:07:00,47.2,-6.7,-100.00,North,0,0.0,0.0,1,0.00,,,0.00,WUHU216HW,2017-03-25 03:07:00,
2017-03-24 20:12:00,47.3,-6.5,-100.00,North,0,0.0,0.0,1,0.00,,,0.00,WUHU216HW,2017-03-25 03:12:00,
2017-03-24 20:17:00,47.2,-6.7,-100.00,North,0,0.0,0.0,1,0.00,,,0.00,WUHU216HW,2017-03-25 03:17:00,
2017-03-24 20:22:00,47.2,-6.7,-100.00,North,0,0.0,0.0,1,0.00,,,0.00,WUHU216HW,2017-03-25 03:22:00,
2017-03-24 20:27:00,47.0,-6.7,-100.00,North,0,0.0,0.0,1,0.00,,,0.00,WUHU216HW,2017-03-25 03:27:00,
2017-03-24 20:32:00,47.0,-6.7,-100.00,North,0,0.0,0.0,1,0.00,,,0.00,WUHU216HW,2017-03-25 03:32:00,
2017-03-24 20:37:00,46.8,-6.9,-100.00,North,0,0.0,0.0,1,0.00,,,0.00,WUHU216HW,2017-03-25 03:37:00,
2017-03-24 20:42:00,46.6,-7.0,-100.00,North,0,0.0,0.0,1,0.00,,,0.00,WUHU216HW,2017-03-25 03:42:00,
2017-03-24 20:47:00,46.4,-7.2,-100.00,North,0,0.0,0.0,1,0.00,,,0.00,WUHU216HW,2017-03-25 03:47:00,
2017-03-24 20:52:00,46.1,-7.5,-100.00,North,0,0.0,0.0,1,0.00,,,0.00,WUHU216HW,2017-03-25 03:52:00,
2017-03-24 20:57:00,46.1,-7.5,-100.00,North,0,0.0,0.0,1,0.00,,,0.00,WUHU216HW,2017-03-25 03:57:00,
2017-03-24 21:02:00,46.3,-7.4,-100.00,North,0,0.0,0.0,1,0.00,,,0.00,WUHU216HW,2017-03-25 04:02:00,
2017-03-24 21:07:00,46.4,-7.2,-100.00,North,0,0.0,0.0,1,0.00,,,0.00,WUHU216HW,2017-03-25 04:07:00,
2017-03-24 21:12:00,46.4,-7.2,-100.00,North,0,0.0,0.0,1,0.00,,,0.00,WUHU216HW,2017-03-25 04:12:00,
2017-03-24 21:17:00,46.1,-7.5,-100.00,North,0,0.0,0.0,1,0.00,,,0.00,WUHU216HW,2017-03-25 04:17:00,
2017-03-24 21:22:00,46.1,-7.5,-100.00,North,0,0.0,0.0,1,0.00,,,0.00,WUHU216HW,2017-03-25 04:22:00,
2017-03-24 21:27:00,46.3,-7.4,-100.00,North,0,0.0,0.0,1,0.00,,,0.00,WUHU216HW,2017-03-25 04:27:00,
2017-03-24 21:32:00,46.4,-7.2,-100.00,North,0,0.0,0.0,1,0.00,,,0.00,WUHU216HW,2017-03-25 04:32:00,
2017-03-24 21:37:00,46.4,-7.2,-100.00,North,0,0.0,0.0,1,0.00,,,0.00,WUHU216HW,2017-03-25 04:37:00,
2017-03-24 21:42:00,46.8,-6.9,-100.00,North,0,0.0,0.0,1,0.00,,,0.00,WUHU216HW,2017-03-25 04:42:00,
2017-03-24 21:47:00,47.0,-6.7,-100.00,North,0,0.0,0.0,1,0.00,,,0.00,WUHU216HW,2017-03-25 04:47:00,
2017-03-24 21:52:00,47.2,-6.7,-100.00,North,0,0.0,0.0,1,0.00,,,0.00,WUHU216HW,2017-03-25 04:52:00,
2017-03-24 21:57:00,47.3,-6.5,-100.00,North,0,0.0,0.0,1,0.00,,,0.00,WUHU216HW,2017-03-25 04:57:00,
2017-03-24 22:02:00,47.5,-6.3,-100.00,North,0,0.0,0.0,1,0.00,,,0.00,WUHU216HW,2017-03-25 05:02:00,
2017-03-24 22:07:00,47.7,-6.2,-100.00,North,0,0.0,0.0,1,0.00,,,0.00,WUHU216HW,2017-03-25 05:07:00,
2017-03-24 22:12:00,47.5,-6.3,-100.00,North,0,0.0,0.0,1,0.00,,,0.00,WUHU216HW,2017-03-25 05:12:00,
2017-03-24 22:17:00,47.5,-6.3,-100.00,North,0,0.0,0.0,1,0.00,,,0.00,WUHU216HW,2017-03-25 05:17:00,
2017-03-24 22:22:00,47.3,-6.5,-100.00,North,0,0.0,0.0,1,0.00,,,0.00,WUHU216HW,2017-03-25 05:22:00,
2017-03-24 22:27:00,47.3,-6.5,-100.00,North,0,0.0,0.0,1,0.00,,,0.00,WUHU216HW,2017-03-25 05:27:00,
2017-03-24 22:32:00,47.3,-6.5,-100.00,North,0,0.0,0.0,1,0.00,,,0.00,WUHU216HW,2017-03-25 05:32:00,
2017-03-24 22:37:00,47.3,-6.5,-100.00,North,0,0.0,0.0,1,0.00,,,0.00,WUHU216HW,2017-03-25 05:37:00,
2017-03-24 22:42:00,47.3,-6.5,-100.00,North,0,0.0,0.0,1,0.00,,,0.00,WUHU216HW,2017-03-25 05:42:00,
2017-03-24 22:47:00,47.7,-6.2,-100.00,North,0,0.0,0.0,1,0.00,,,0.00,WUHU216HW,2017-03-25 05:47:00,
2017-03-24 22:52:00,47.7,-6.2,-100.00,North,0,0.0,0.0,1,0.00,,,0.00,WUHU216HW,2017-03-25 05:52:00,
2017-03-24 22:57:00,48.2,-5.8,-100.00,North,0,0.0,0.0,1,0.00,,,0.00,WUHU216HW,2017-03-25 05:57:00,
2017-03-24 23:02:00,48.4,-5.7,-100.00,North,0,0.0,0.0,1,0.00,,,0.00,WUHU216HW,2017-03-25 06:02:00,
2017-03-24 23:07:00,48.4,-5.7,-100.00,North,0,0.0,0.0,1,0.00,,,0.00,WUHU216HW,2017-03-25 06:07:00,
2017-03-24 23:12:00,48.4,-5.7,-100.00,North,0,0.0,0.0,1,0.00,,,0.00,WUHU216HW,2017-03-25 06:12:00,
2017-03-24 23:17:00,48.4,-5.7,-100.00,North,0,0.0,0.0,1,0.00,,,0.00,WUHU216HW,2017-03-25 06:17:00,
2017-03-24 23:22:00,48.6,-5.5,-100.00,North,0,0.0,0.0,1,0.00,,,0.00,WUHU216HW,2017-03-25 06:22:00,
2017-03-24 23:27:00,48.6,-5.5,-100.00,North,0,0.0,0.0,1,0.00,,,0.00,WUHU216HW,2017-03-25 06:27:00,